Time;durP1;ratioP1;P1;durP2;ratioP2;P2;SDS_P1;SDS_P2;PMS_P1;PMS_P2;Temp;Humidity;BMP_temperature;BMP_pressure;BME280_temperature;BME280_humidity;BME280_pressure;Samples;Min_cycle;Max_cycle;Signal;HPM_P1;HPM_P2
2023/05/18 00:01:05;;;;;;;7.55;4.88;;;8.10;94.80;;;;;;5110670;28;20207;-89
2023/05/18 00:03:34;;;;;;;8.05;5.18;;;8.00;94.60;;;;;;5087419;28;20227;-89
2023/05/18 00:06:03;;;;;;;7.03;4.78;;;8.00;94.90;;;;;;5096260;28;20196;-89
2023/05/18 00:08:31;;;;;;;10.32;4.70;;;8.10;94.80;;;;;;5097720;28;20204;-89
2023/05/18 00:10:57;;;;;;;7.40;4.70;;;8.10;94.70;;;;;;5097227;28;20227;-88
2023/05/18 00:13:24;;;;;;;6.50;4.45;;;8.20;94.50;;;;;;5110995;28;20219;-90
2023/05/18 00:15:51;;;;;;;8.05;4.47;;;8.20;94.50;;;;;;5116485;28;20208;-89
2023/05/18 00:18:22;;;;;;;8.10;4.45;;;8.30;94.10;;;;;;5111147;28;20266;-89
2023/05/18 00:20:57;;;;;;;10.20;5.13;;;8.40;94.00;;;;;;5116084;28;20200;-88
2023/05/18 00:23:25;;;;;;;10.30;4.13;;;8.40;93.80;;;;;;5116120;28;20642;-88
2023/05/18 00:25:52;;;;;;;9.18;4.38;;;8.50;94.00;;;;;;5115933;28;20196;-89
2023/05/18 00:28:19;;;;;;;10.45;4.95;;;8.50;93.60;;;;;;5113316;28;20192;-88
2023/05/18 00:30:45;;;;;;;11.02;4.88;;;8.50;93.40;;;;;;5106523;28;20192;-89
2023/05/18 00:33:13;;;;;;;7.22;5.10;;;8.50;93.50;;;;;;5094375;28;20223;-89
2023/05/18 00:35:40;;;;;;;8.35;4.55;;;8.50;93.60;;;;;;5072513;28;20654;-89
2023/05/18 00:38:10;;;;;;;8.70;4.82;;;8.50;93.50;;;;;;5097682;28;20202;-89
2023/05/18 00:40:37;;;;;;;8.60;4.32;;;8.50;93.60;;;;;;5116412;28;20607;-89
2023/05/18 00:43:07;;;;;;;9.95;4.38;;;8.50;93.20;;;;;;5107681;28;20208;-88
2023/05/18 00:45:33;;;;;;;9.02;4.75;;;8.50;93.10;;;;;;5096263;28;20261;-87
2023/05/18 00:48:00;;;;;;;9.48;4.53;;;8.50;93.20;;;;;;5082438;28;20226;-89
2023/05/18 00:50:28;;;;;;;8.57;4.65;;;8.50;93.10;;;;;;5112557;28;20196;-90
2023/05/18 00:52:55;;;;;;;8.32;4.60;;;8.50;93.10;;;;;;5113812;28;20663;-89
2023/05/18 00:55:24;;;;;;;8.15;4.80;;;8.40;93.10;;;;;;5114930;28;20207;-88
2023/05/18 00:57:55;;;;;;;8.48;4.57;;;8.40;93.10;;;;;;5097043;28;20200;-89
2023/05/18 01:00:22;;;;;;;6.72;4.43;;;8.40;92.80;;;;;;5114000;28;20192;-88
2023/05/18 01:02:49;;;;;;;9.35;4.88;;;8.30;93.20;;;;;;5094394;28;20200;-89
2023/05/18 01:05:18;;;;;;;8.90;4.65;;;8.20;93.00;;;;;;5114083;28;20604;-90
2023/05/18 01:07:46;;;;;;;7.03;3.92;;;8.20;93.10;;;;;;5113173;28;20596;-89
2023/05/18 01:10:15;;;;;;;8.35;4.80;;;8.10;93.00;;;;;;5096717;28;20217;-88
2023/05/18 01:12:48;;;;;;;8.75;4.97;;;8.10;93.20;;;;;;5116414;28;20192;-89
2023/05/18 01:15:18;;;;;;;9.73;4.43;;;8.00;93.50;;;;;;5097464;28;20567;-89
2023/05/18 01:18:03;;;;;;;6.57;4.70;;;8.00;93.40;;;;;;5114501;28;20310;-89
2023/05/18 01:20:36;;;;;;;9.05;4.53;;;7.90;93.60;;;;;;5110893;28;20290;-90
2023/05/18 01:23:40;;;;;;;8.23;4.75;;;7.90;93.70;;;;;;5111473;28;20193;-89
2023/05/18 01:26:14;;;;;;;7.35;4.55;;;7.80;93.60;;;;;;5116966;28;20200;-89
2023/05/18 01:28:45;;;;;;;7.82;4.35;;;7.80;94.10;;;;;;5116004;28;20200;-89
2023/05/18 01:31:13;;;;;;;6.72;4.28;;;7.80;94.00;;;;;;5085883;28;20283;-89
2023/05/18 01:33:40;;;;;;;9.00;5.22;;;7.70;94.20;;;;;;5117853;28;20306;-89
2023/05/18 01:36:08;;;;;;;8.82;5.00;;;7.60;94.50;;;;;;5086694;28;20197;-89
2023/05/18 01:38:36;;;;;;;8.07;4.63;;;7.60;94.20;;;;;;5115743;28;20202;-89
2023/05/18 01:41:11;;;;;;;8.00;4.95;;;7.60;94.30;;;;;;5117377;28;20195;-89
2023/05/18 01:43:44;;;;;;;9.30;4.97;;;7.60;94.50;;;;;;5104677;28;20646;-89
2023/05/18 01:46:18;;;;;;;8.25;4.78;;;7.50;94.50;;;;;;5095068;28;20648;-90
2023/05/18 01:48:53;;;;;;;9.82;4.90;;;7.50;94.90;;;;;;5112290;28;20207;-89
2023/05/18 01:51:24;;;;;;;7.05;4.75;;;7.50;94.70;;;;;;5096784;28;20199;-89
2023/05/18 01:53:59;;;;;;;8.15;4.97;;;7.50;94.80;;;;;;5101334;28;20207;-89
2023/05/18 01:56:28;;;;;;;10.15;5.05;;;7.50;94.80;;;;;;5111698;28;20623;-89
2023/05/18 01:58:58;;;;;;;9.70;4.72;;;7.50;95.10;;;;;;5099197;28;20191;-88
2023/05/18 02:01:25;;;;;;;6.45;5.03;;;7.40;95.30;;;;;;5110890;28;20195;-89
2023/05/18 02:03:52;;;;;;;9.00;5.30;;;7.40;95.60;;;;;;5112348;28;20199;-89
2023/05/18 02:06:18;;;;;;;7.93;4.88;;;7.40;95.60;;;;;;5114618;28;20197;-89
2023/05/18 02:08:45;;;;;;;7.60;5.10;;;7.40;95.60;;;;;;5117896;28;20191;-89
2023/05/18 02:11:12;;;;;;;10.05;5.57;;;7.30;95.50;;;;;;5124964;27;20200;-89
2023/05/18 02:13:39;;;;;;;10.10;4.97;;;7.40;95.60;;;;;;5115880;28;20573;-89
2023/05/18 02:16:09;;;;;;;9.27;5.25;;;7.40;95.60;;;;;;5092842;28;20192;-90
2023/05/18 02:18:37;;;;;;;10.30;5.35;;;7.40;95.60;;;;;;5116404;28;20234;-90
2023/05/18 02:21:04;;;;;;;8.02;5.28;;;7.40;95.60;;;;;;5096425;28;20205;-89
2023/05/18 02:23:31;;;;;;;10.40;5.65;;;7.40;95.90;;;;;;5096756;28;20603;-89
2023/05/18 02:25:58;;;;;;;10.80;5.70;;;7.30;95.60;;;;;;5096427;28;20193;-90
2023/05/18 02:28:25;;;;;;;10.02;5.38;;;7.40;95.60;;;;;;5092155;28;20249;-89
2023/05/18 02:30:52;;;;;;;10.05;5.10;;;7.40;95.60;;;;;;5115656;28;20197;-89
2023/05/18 02:33:25;;;;;;;11.23;5.43;;;7.40;95.60;;;;;;5114391;28;20226;-89
2023/05/18 02:35:53;;;;;;;8.57;5.68;;;7.40;95.60;;;;;;5119402;28;20192;-89
2023/05/18 02:38:20;;;;;;;9.38;4.97;;;7.40;95.80;;;;;;5097072;28;20225;-90
2023/05/18 02:40:48;;;;;;;8.52;5.50;;;7.30;95.70;;;;;;5098658;28;20207;-89
2023/05/18 02:43:15;;;;;;;10.02;5.68;;;7.30;95.90;;;;;;5100784;28;20249;-89
2023/05/18 02:45:42;;;;;;;12.18;5.97;;;7.40;96.40;;;;;;5117537;28;20207;-89
2023/05/18 02:48:09;;;;;;;8.90;5.10;;;7.40;96.30;;;;;;5119756;28;20264;-89
2023/05/18 02:50:37;;;;;;;9.63;5.40;;;7.40;96.20;;;;;;5121384;28;20257;-89
2023/05/18 02:53:04;;;;;;;8.98;5.50;;;7.40;96.20;;;;;;5115052;28;20421;-89
2023/05/18 02:55:31;;;;;;;10.02;6.47;;;7.40;96.20;;;;;;5112660;28;20200;-89
2023/05/18 02:57:58;;;;;;;10.90;6.03;;;7.30;96.50;;;;;;5097969;28;20227;-89
2023/05/18 03:00:25;;;;;;;11.20;5.95;;;7.30;96.70;;;;;;5115330;28;20192;-87
2023/05/18 03:02:56;;;;;;;13.57;5.97;;;7.30;96.80;;;;;;5114291;28;20244;-88
2023/05/18 03:05:23;;;;;;;10.73;6.05;;;7.30;96.90;;;;;;5084043;28;20199;-89
2023/05/18 03:07:53;;;;;;;11.00;5.93;;;7.30;97.00;;;;;;5113127;28;20678;-87
2023/05/18 03:10:20;;;;;;;13.98;6.15;;;7.20;97.20;;;;;;5110679;28;20201;-89
2023/05/18 03:12:47;;;;;;;10.85;6.45;;;7.20;97.50;;;;;;5105002;28;20534;-89
2023/05/18 03:15:15;;;;;;;12.50;7.03;;;7.20;97.80;;;;;;5099171;28;20228;-89
2023/05/18 03:17:42;;;;;;;11.10;6.70;;;7.10;98.10;;;;;;5112819;28;20227;-90
2023/05/18 03:20:10;;;;;;;9.07;6.10;;;7.00;98.50;;;;;;5113994;28;20233;-89
2023/05/18 03:22:37;;;;;;;11.32;7.28;;;7.00;98.70;;;;;;5098683;28;20235;-89
2023/05/18 03:25:07;;;;;;;14.95;7.32;;;7.00;98.90;;;;;;5080557;28;20191;-89
2023/05/18 03:27:34;;;;;;;12.05;6.72;;;6.90;99.20;;;;;;5116345;28;20190;-88
2023/05/18 03:30:01;;;;;;;11.52;6.55;;;6.90;99.50;;;;;;5113408;28;20648;-89
2023/05/18 03:32:30;;;;;;;11.70;6.80;;;6.80;99.90;;;;;;5112013;28;20203;-88
2023/05/18 03:34:59;;;;;;;11.15;6.95;;;6.80;99.90;;;;;;5101443;27;20281;-88
2023/05/18 03:37:27;;;;;;;13.30;6.85;;;6.80;99.90;;;;;;5115435;28;20192;-87
2023/05/18 03:39:55;;;;;;;12.38;6.55;;;6.80;99.90;;;;;;5093837;28;21017;-89
2023/05/18 03:42:24;;;;;;;10.60;6.60;;;6.80;99.90;;;;;;5078187;28;20215;-89
2023/05/18 03:44:51;;;;;;;14.73;6.80;;;6.70;99.90;;;;;;5089029;28;20204;-89
2023/05/18 03:47:18;;;;;;;13.00;7.43;;;6.70;99.90;;;;;;5109761;27;20287;-88
2023/05/18 03:49:45;;;;;;;13.93;7.75;;;6.70;99.90;;;;;;5080643;28;20200;-90
2023/05/18 03:52:14;;;;;;;13.50;7.22;;;6.70;99.90;;;;;;5091036;28;20234;-89
2023/05/18 03:54:41;;;;;;;10.55;7.43;;;6.80;99.90;;;;;;5111419;28;20755;-89
2023/05/18 03:57:08;;;;;;;10.75;7.22;;;6.70;99.90;;;;;;5101429;28;20192;-89
2023/05/18 03:59:37;;;;;;;7.80;6.68;;;6.70;99.90;;;;;;5121072;28;20256;-89
2023/05/18 04:02:04;;;;;;;11.60;7.28;;;6.80;99.90;;;;;;5117173;28;20192;-90
2023/05/18 04:04:31;;;;;;;13.32;7.68;;;6.80;99.90;;;;;;5109713;28;20195;-88
2023/05/18 04:07:00;;;;;;;13.15;7.72;;;6.80;99.90;;;;;;5087481;28;20215;-89
2023/05/18 04:09:28;;;;;;;11.27;7.18;;;6.90;99.90;;;;;;5111532;28;20204;-90
2023/05/18 04:11:55;;;;;;;12.55;7.45;;;6.90;99.90;;;;;;5096813;28;20200;-90
2023/05/18 04:14:23;;;;;;;10.65;7.50;;;7.00;99.90;;;;;;5092295;28;20223;-89
2023/05/18 04:16:52;;;;;;;11.93;7.82;;;7.00;99.90;;;;;;5112636;28;20237;-89
2023/05/18 04:19:20;;;;;;;10.55;7.30;;;6.90;99.90;;;;;;5093892;28;20225;-89
2023/05/18 04:21:47;;;;;;;12.32;7.30;;;7.00;99.90;;;;;;5095998;28;20200;-89
2023/05/18 04:24:15;;;;;;;10.10;7.28;;;7.00;99.90;;;;;;5098069;28;20204;-87
2023/05/18 04:26:42;;;;;;;12.75;7.68;;;7.00;99.90;;;;;;5100224;28;20199;-89
2023/05/18 04:29:12;;;;;;;11.52;7.43;;;7.10;99.90;;;;;;5110307;28;20275;-89
2023/05/18 04:31:41;;;;;;;10.88;7.13;;;7.10;99.90;;;;;;5094937;28;20275;-89
2023/05/18 04:34:12;;;;;;;12.38;7.35;;;7.10;99.90;;;;;;5111024;28;20266;-88
2023/05/18 04:36:41;;;;;;;11.73;7.43;;;7.20;99.90;;;;;;5108427;28;20203;-91
2023/05/18 04:39:08;;;;;;;9.10;6.90;;;7.20;99.90;;;;;;5114753;28;20196;-89
2023/05/18 04:41:35;;;;;;;12.40;7.53;;;7.20;99.90;;;;;;5097011;28;20212;-92
2023/05/18 04:44:03;;;;;;;11.48;7.13;;;7.30;99.90;;;;;;5113340;28;20196;-92
2023/05/18 04:46:31;;;;;;;10.70;7.03;;;7.40;99.90;;;;;;5105546;28;20199;-91
2023/05/18 04:48:58;;;;;;;9.45;7.10;;;7.40;99.90;;;;;;5108836;28;20196;-92
2023/05/18 04:51:26;;;;;;;9.02;6.60;;;7.50;99.90;;;;;;5115307;28;20685;-91
2023/05/18 04:53:54;;;;;;;10.45;6.63;;;7.60;99.90;;;;;;5100577;28;20199;-92
2023/05/18 04:56:21;;;;;;;10.05;6.90;;;7.70;99.90;;;;;;5116369;28;20192;-91
2023/05/18 04:58:49;;;;;;;8.95;6.35;;;7.70;99.90;;;;;;5116445;27;20225;-91
2023/05/18 05:01:16;;;;;;;9.13;6.78;;;7.70;99.90;;;;;;5119919;27;20217;-92
2023/05/18 05:03:43;;;;;;;7.40;6.30;;;7.80;99.90;;;;;;5111340;27;20197;-92
2023/05/18 05:06:11;;;;;;;9.73;5.80;;;7.90;99.90;;;;;;5110281;27;20222;-92
2023/05/18 05:08:40;;;;;;;8.23;5.72;;;8.00;99.90;;;;;;5108893;28;20197;-91
2023/05/18 05:11:07;;;;;;;10.70;6.13;;;8.00;99.90;;;;;;5113480;28;20199;-91
2023/05/18 05:13:34;;;;;;;7.40;5.75;;;8.10;99.90;;;;;;5118285;28;20667;-93
2023/05/18 05:16:02;;;;;;;7.03;5.50;;;8.20;99.90;;;;;;5096890;28;20228;-91
2023/05/18 05:18:29;;;;;;;9.23;5.70;;;8.40;99.80;;;;;;5103068;28;20230;-90
2023/05/18 05:20:56;;;;;;;7.00;5.15;;;8.50;99.30;;;;;;5099157;28;20204;-91
2023/05/18 05:23:22;;;;;;;7.32;5.35;;;8.50;99.20;;;;;;5111648;28;20735;-92
2023/05/18 05:25:51;;;;;;;6.35;4.85;;;9.00;99.60;;;;;;5115277;28;20196;-91
2023/05/18 05:28:18;;;;;;;6.85;4.97;;;9.80;97.20;;;;;;5108928;28;20203;-92
2023/05/18 05:30:45;;;;;;;7.10;4.70;;;10.10;94.70;;;;;;5118612;28;20683;-91
2023/05/18 05:33:12;;;;;;;7.25;5.10;;;10.20;94.00;;;;;;5101722;28;20200;-91
2023/05/18 05:35:39;;;;;;;8.43;4.93;;;10.20;93.30;;;;;;5088303;28;20694;-92
2023/05/18 05:38:06;;;;;;;8.07;4.88;;;10.10;93.10;;;;;;5092988;28;20200;-91
2023/05/18 05:40:33;;;;;;;5.57;4.53;;;10.00;93.50;;;;;;5114764;28;20751;-90
2023/05/18 05:43:01;;;;;;;8.60;5.13;;;10.10;93.10;;;;;;5110233;28;20200;-92
2023/05/18 05:45:28;;;;;;;5.85;4.53;;;10.10;93.40;;;;;;5097139;28;20632;-92
2023/05/18 05:47:55;;;;;;;7.78;4.80;;;10.20;93.20;;;;;;5120867;27;20202;-92
2023/05/18 05:50:22;;;;;;;8.82;4.55;;;10.40;92.70;;;;;;5102191;28;20245;-91
2023/05/18 05:52:49;;;;;;;6.90;4.70;;;10.60;91.80;;;;;;5115543;28;20712;-91
2023/05/18 05:55:16;;;;;;;6.28;3.80;;;10.50;91.30;;;;;;5116235;28;20569;-90
2023/05/18 05:57:43;;;;;;;7.00;3.92;;;10.50;90.50;;;;;;5116098;28;20683;-89
2023/05/18 06:00:13;;;;;;;7.03;4.45;;;10.60;91.20;;;;;;5111811;28;20559;-88
2023/05/18 06:02:41;;;;;;;6.38;4.50;;;10.70;90.70;;;;;;5099948;28;20207;-90
2023/05/18 06:05:09;;;;;;;6.78;4.50;;;10.60;90.40;;;;;;5113900;28;20195;-90
2023/05/18 06:07:36;;;;;;;7.15;4.22;;;10.50;90.40;;;;;;5089564;28;20638;-89
2023/05/18 06:10:03;;;;;;;7.35;5.20;;;10.40;90.40;;;;;;5118915;28;20193;-89
2023/05/18 06:12:30;;;;;;;6.35;4.38;;;10.30;91.20;;;;;;5116740;28;20206;-90
2023/05/18 06:14:57;;;;;;;9.40;4.50;;;10.30;90.40;;;;;;5109274;28;20561;-89
2023/05/18 06:17:27;;;;;;;7.53;4.30;;;10.30;90.40;;;;;;5112986;28;20216;-89
2023/05/18 06:19:54;;;;;;;6.88;4.65;;;10.30;90.40;;;;;;5092903;27;20208;-88
2023/05/18 06:22:23;;;;;;;10.80;4.57;;;10.40;90.70;;;;;;5099090;28;20207;-88
2023/05/18 06:24:50;;;;;;;8.70;4.43;;;10.40;90.70;;;;;;5109679;28;20672;-89
2023/05/18 06:27:18;;;;;;;8.25;4.63;;;10.50;90.40;;;;;;5115609;28;20622;-89
2023/05/18 06:29:45;;;;;;;9.43;4.53;;;10.50;90.70;;;;;;5105127;28;20279;-90
2023/05/18 06:32:13;;;;;;;8.50;4.35;;;10.60;90.40;;;;;;5081890;28;20201;-89
2023/05/18 06:34:44;;;;;;;7.20;4.22;;;10.70;90.90;;;;;;5109278;28;20220;-90
2023/05/18 06:37:11;;;;;;;8.52;4.40;;;10.70;90.40;;;;;;5110541;28;20206;-90
2023/05/18 06:39:39;;;;;;;9.18;4.40;;;10.90;90.10;;;;;;5105246;28;20192;-89
2023/05/18 06:42:07;;;;;;;8.18;4.40;;;11.00;87.20;;;;;;5097213;28;20206;-87
2023/05/18 06:44:34;;;;;;;7.50;4.35;;;11.20;87.40;;;;;;5089057;28;20197;-89
2023/05/18 06:47:01;;;;;;;7.72;4.53;;;11.40;84.90;;;;;;5112818;28;20202;-88
2023/05/18 06:49:28;;;;;;;6.72;4.35;;;11.60;84.10;;;;;;5075224;28;20583;-88
2023/05/18 06:51:57;;;;;;;6.50;4.30;;;11.80;83.60;;;;;;5112347;28;20210;-88
2023/05/18 06:54:24;;;;;;;8.68;4.00;;;11.80;78.80;;;;;;5106769;28;20197;-90
2023/05/18 06:56:51;;;;;;;8.43;3.90;;;11.70;78.70;;;;;;5108131;28;20219;-90
2023/05/18 06:59:18;;;;;;;9.95;4.00;;;11.80;78.90;;;;;;5100265;28;20280;-88
2023/05/18 07:01:45;;;;;;;10.25;3.75;;;11.90;75.10;;;;;;5115427;28;20707;-90
2023/05/18 07:04:14;;;;;;;8.63;3.65;;;12.20;75.30;;;;;;5113574;27;20227;-89
2023/05/18 07:06:41;;;;;;;9.45;3.47;;;12.40;65.20;;;;;;5101330;28;20200;-91
2023/05/18 07:12:00;;;;;;;8.75;3.35;;;12.90;55.40;;;;;;5113474;28;20230;-89
2023/05/18 07:25:57;;;;;;;7.35;2.92;;;13.00;39.50;;;;;;5072191;28;20213;-94
2023/05/18 07:28:24;;;;;;;7.80;3.20;;;13.10;39.60;;;;;;5063805;28;20213;-91
2023/05/18 07:30:51;;;;;;;7.70;3.22;;;13.20;39.50;;;;;;5062296;28;20271;-89
2023/05/18 07:33:18;;;;;;;8.27;3.28;;;13.20;37.90;;;;;;5074104;28;20269;-87
2023/05/18 07:35:45;;;;;;;5.55;3.13;;;13.00;37.70;;;;;;5074288;28;20217;-88
2023/05/18 07:38:21;;;;;;;8.05;3.47;;;12.90;37.60;;;;;;5072124;28;20560;-89
2023/05/18 07:40:48;;;;;;;5.85;2.90;;;12.70;40.00;;;;;;5058012;28;20208;-86
2023/05/18 07:45:58;;;;;;;7.90;3.08;;;13.00;39.10;;;;;;5069199;28;20202;-86
2023/05/18 07:48:25;;;;;;;7.38;3.08;;;13.30;38.10;;;;;;5069294;28;20189;-87
2023/05/18 07:50:52;;;;;;;8.88;3.58;;;13.30;39.30;;;;;;5071731;28;20608;-89
2023/05/18 07:53:41;;;;;;;8.25;2.88;;;13.50;37.40;;;;;;5068140;28;20193;-88
2023/05/18 07:56:08;;;;;;;9.50;3.10;;;13.60;34.30;;;;;;5074203;28;20209;-90
2023/05/18 08:01:19;;;;;;;8.45;3.00;;;13.50;34.60;;;;;;5070576;28;20572;-91
2023/05/18 08:03:46;;;;;;;7.60;3.05;;;13.50;34.30;;;;;;5056674;28;20592;-92
2023/05/18 08:08:55;;;;;;;9.00;2.72;;;13.40;34.30;;;;;;5055061;28;20280;-93
2023/05/18 08:11:23;;;;;;;7.90;3.20;;;13.40;33.30;;;;;;5073034;28;20208;-92
2023/05/18 08:16:42;;;;;;;8.32;3.45;;;13.50;35.80;;;;;;5080801;28;20308;-95
2023/05/18 08:40:40;;;;;;;11.15;3.58;;;14.90;32.20;;;;;;5035856;28;20208;-94
2023/05/18 08:51:31;;;;;;;9.20;3.45;;;15.00;28.90;;;;;;5071308;28;20658;-92
2023/05/18 08:56:47;;;;;;;9.68;3.53;;;14.70;32.10;;;;;;5087438;28;20228;-92
2023/05/18 09:07:34;;;;;;;5.90;3.05;;;13.90;31.90;;;;;;5103127;28;20201;-91
2023/05/18 09:12:48;;;;;;;8.77;3.30;;;13.60;33.50;;;;;;5063466;28;20708;-89
2023/05/18 09:15:17;;;;;;;9.52;3.70;;;13.30;35.00;;;;;;5081077;28;20215;-90
2023/05/18 09:17:47;;;;;;;7.63;3.70;;;13.30;35.10;;;;;;5077766;28;20217;-96
2023/05/18 09:20:17;;;;;;;8.05;3.60;;;13.30;35.40;;;;;;5089901;28;20250;-92
2023/05/18 09:22:44;;;;;;;5.78;3.40;;;13.90;35.10;;;;;;5087798;28;20200;-87
2023/05/18 09:25:13;;;;;;;6.00;3.60;;;14.80;32.50;;;;;;5085050;28;20215;-89
2023/05/18 09:27:40;;;;;;;9.57;3.90;;;16.10;28.80;;;;;;5092315;28;20200;-91
2023/05/18 09:30:12;;;;;;;11.55;3.70;;;16.60;25.70;;;;;;5073105;28;20253;-89
2023/05/18 09:32:39;;;;;;;10.68;3.30;;;16.40;25.70;;;;;;5089285;28;20196;-89
2023/05/18 09:35:08;;;;;;;8.02;3.22;;;15.60;28.40;;;;;;5072683;28;20196;-88
2023/05/18 09:37:35;;;;;;;6.88;3.42;;;15.10;27.90;;;;;;5066199;28;20197;-88
2023/05/18 09:40:05;;;;;;;6.90;3.55;;;14.80;29.60;;;;;;5088306;28;20626;-90
2023/05/18 09:45:22;;;;;;;6.75;3.58;;;14.50;31.90;;;;;;5071288;28;20208;-91
2023/05/18 09:47:51;;;;;;;6.32;3.25;;;14.30;32.40;;;;;;5091954;28;20188;-90
2023/05/18 09:50:19;;;;;;;6.32;3.50;;;14.30;32.30;;;;;;5094892;28;20284;-91
2023/05/18 09:52:48;;;;;;;7.78;3.60;;;14.10;32.50;;;;;;5088526;28;20228;-89
2023/05/18 10:03:48;;;;;;;7.53;3.70;;;14.00;33.50;;;;;;5088541;28;20203;-89
2023/05/18 10:06:21;;;;;;;11.18;4.10;;;14.10;31.70;;;;;;5071747;28;20224;-90
2023/05/18 10:08:48;;;;;;;7.75;3.85;;;14.10;32.40;;;;;;5078613;28;20283;-89
2023/05/18 10:11:18;;;;;;;10.27;3.92;;;14.20;32.70;;;;;;5083883;28;20215;-88
2023/05/18 10:13:47;;;;;;;7.60;3.60;;;14.40;32.00;;;;;;5081425;28;20247;-89
2023/05/18 10:16:16;;;;;;;8.55;3.35;;;14.60;30.00;;;;;;5091273;28;20314;-88
2023/05/18 10:18:43;;;;;;;7.85;3.55;;;14.90;27.80;;;;;;5068976;28;20225;-89
2023/05/18 10:21:13;;;;;;;5.68;3.35;;;15.50;26.70;;;;;;5054826;28;20200;-89
2023/05/18 10:23:40;;;;;;;7.07;3.40;;;15.70;26.40;;;;;;5073871;28;20212;-89
2023/05/18 10:26:08;;;;;;;9.88;3.65;;;15.90;25.20;;;;;;5053875;28;20633;-90
2023/05/18 10:28:41;;;;;;;8.70;3.55;;;15.90;28.60;;;;;;5093443;28;20533;-89
2023/05/18 10:31:09;;;;;;;5.65;3.38;;;16.00;25.90;;;;;;5072829;28;20205;-92
2023/05/18 10:33:38;;;;;;;5.25;3.13;;;16.00;23.70;;;;;;5095197;28;20205;-90
2023/05/18 10:36:07;;;;;;;9.02;3.67;;;15.80;24.60;;;;;;5084452;28;20604;-90
2023/05/18 10:38:38;;;;;;;12.77;3.65;;;15.30;27.60;;;;;;5055440;28;20568;-91
2023/05/18 10:41:07;;;;;;;6.50;3.22;;;14.90;27.70;;;;;;5079411;28;20254;-90
2023/05/18 10:43:39;;;;;;;10.00;3.55;;;14.60;27.50;;;;;;5067675;28;20201;-87
2023/05/18 10:46:07;;;;;;;7.60;3.30;;;14.50;27.40;;;;;;5058448;28;20231;-87
2023/05/18 10:48:42;;;;;;;8.25;3.58;;;14.30;27.30;;;;;;5076591;28;20200;-94
2023/05/18 10:51:10;;;;;;;8.07;2.92;;;14.20;29.40;;;;;;5092454;28;20204;-91
2023/05/18 10:53:37;;;;;;;8.77;3.42;;;14.10;31.10;;;;;;5072000;28;20205;-86
2023/05/18 10:56:06;;;;;;;6.40;2.83;;;14.30;29.90;;;;;;5070811;28;20221;-88
2023/05/18 10:58:37;;;;;;;7.22;3.10;;;14.30;30.90;;;;;;5091724;28;20609;-88
2023/05/18 11:03:57;;;;;;;4.78;3.35;;;14.00;30.50;;;;;;5087796;28;20224;-87
2023/05/18 11:09:50;;;;;;;6.53;3.20;;;14.20;30.20;;;;;;5077567;28;20628;-92
2023/05/18 11:12:22;;;;;;;6.55;3.33;;;14.40;29.30;;;;;;5097054;28;20337;-90
2023/05/18 11:14:58;;;;;;;6.28;3.28;;;14.30;28.70;;;;;;5081679;28;20204;-90
2023/05/18 11:18:08;;;;;;;8.80;3.50;;;14.20;29.90;;;;;;5158131;22;20197;-93
2023/05/18 11:20:42;;;;;;;7.88;3.28;;;14.30;30.10;;;;;;5069080;28;20227;-90
2023/05/18 11:23:09;;;;;;;5.65;3.10;;;14.30;29.60;;;;;;5055208;28;20202;-89
2023/05/18 11:25:38;;;;;;;6.75;3.05;;;14.60;28.20;;;;;;5075021;28;20197;-90
2023/05/18 11:30:52;;;;;;;7.15;2.90;;;14.80;29.00;;;;;;5074393;28;20662;-90
2023/05/18 11:33:25;;;;;;;8.35;3.15;;;15.10;28.00;;;;;;5072138;28;20192;-90
2023/05/18 11:36:02;;;;;;;4.43;2.53;;;15.30;28.10;;;;;;5077161;28;20232;-88
2023/05/18 11:41:38;;;;;;;5.13;3.33;;;15.40;27.30;;;;;;5063203;28;20201;-92
2023/05/18 11:44:15;;;;;;;4.47;2.88;;;15.60;28.30;;;;;;5053612;28;20201;-90
2023/05/18 11:46:52;;;;;;;4.82;2.90;;;15.70;26.80;;;;;;5070576;28;20262;-88
2023/05/18 11:52:16;;;;;;;8.25;3.15;;;15.80;25.00;;;;;;5072437;28;20194;-91
2023/05/18 12:00:34;;;;;;;4.20;2.70;;;15.60;28.30;;;;;;5067912;28;20210;-90
2023/05/18 12:03:06;;;;;;;5.47;2.55;;;15.60;25.70;;;;;;5046460;28;20215;-91
2023/05/18 12:08:43;;;;;;;5.40;2.58;;;15.80;25.60;;;;;;5051961;28;20316;-90
2023/05/18 12:11:12;;;;;;;6.30;2.88;;;15.70;26.10;;;;;;5075037;28;20201;-90
2023/05/18 12:13:41;;;;;;;5.57;2.85;;;15.90;27.20;;;;;;5063100;28;20208;-90
2023/05/18 12:16:08;;;;;;;4.40;2.47;;;16.30;24.80;;;;;;5058093;28;20218;-92
2023/05/18 12:18:37;;;;;;;4.72;2.70;;;16.40;24.00;;;;;;5084067;28;20231;-88
2023/05/18 12:24:01;;;;;;;3.90;2.30;;;16.60;23.30;;;;;;5067571;28;20245;-88
2023/05/18 12:26:35;;;;;;;4.93;2.50;;;16.50;22.70;;;;;;5080220;28;20204;-93
2023/05/18 12:35:34;;;;;;;6.80;2.70;;;15.90;24.50;;;;;;5090837;28;20196;-93
2023/05/18 12:38:37;;;;;;;6.03;2.47;;;15.80;25.20;;;;;;5088358;28;20277;-95
2023/05/18 12:48:17;;;;;;;3.25;2.08;;;15.00;27.90;;;;;;5095450;28;20196;-91
2023/05/18 12:50:49;;;;;;;3.42;2.33;;;15.10;28.00;;;;;;5099648;28;20235;-89
2023/05/18 13:06:09;;;;;;;3.50;2.30;;;14.70;27.60;;;;;;5012111;28;20202;-91
2023/05/18 13:12:11;;;;;;;4.88;2.72;;;15.10;28.00;;;;;;5020380;28;20182;-91
2023/05/18 13:14:43;;;;;;;4.57;2.80;;;15.20;27.90;;;;;;5000695;28;20725;-91
2023/05/18 13:30:10;;;;;;;8.63;3.30;;;14.50;29.60;;;;;;6209351;22;20246;-91
2023/05/18 13:32:37;;;;;;;5.38;2.88;;;14.80;27.70;;;;;;5060770;28;20201;-92
2023/05/18 13:35:06;;;;;;;5.30;3.28;;;14.90;27.80;;;;;;5059861;28;20329;-93
2023/05/18 13:37:36;;;;;;;6.18;2.70;;;14.80;29.60;;;;;;5043887;28;20220;-91
2023/05/18 13:40:05;;;;;;;5.88;2.65;;;14.80;29.20;;;;;;5040461;28;20194;-92
2023/05/18 13:42:33;;;;;;;5.53;2.63;;;14.80;28.10;;;;;;5054979;28;20202;-93
2023/05/18 13:45:00;;;;;;;4.35;2.60;;;14.90;27.80;;;;;;5048485;28;20621;-92
2023/05/18 13:47:38;;;;;;;6.22;2.67;;;15.00;28.70;;;;;;5056019;28;20206;-92
2023/05/18 13:50:26;;;;;;;5.60;2.88;;;15.20;28.00;;;;;;5063317;28;20210;-93
2023/05/18 13:52:54;;;;;;;5.40;2.83;;;15.30;28.10;;;;;;5024068;28;20202;-91
2023/05/18 13:55:21;;;;;;;6.35;3.25;;;15.50;28.30;;;;;;5049576;28;20201;-91
2023/05/18 13:57:48;;;;;;;7.55;3.00;;;15.60;28.30;;;;;;5018710;28;20245;-91
2023/05/18 14:00:16;;;;;;;8.48;2.88;;;15.60;28.30;;;;;;5015668;28;20202;-89
2023/05/18 14:03:19;;;;;;;5.80;2.83;;;15.60;29.40;;;;;;5038948;28;20222;-89
2023/05/18 14:05:46;;;;;;;5.05;2.97;;;15.40;28.30;;;;;;5038690;28;20190;-88
2023/05/18 14:08:13;;;;;;;7.25;3.15;;;15.20;28.00;;;;;;5037418;28;20244;-90
2023/05/18 15:14:41;;;;;;;2.88;2.00;;;14.10;36.50;;;;;;5098139;28;20245;-91
2023/05/18 15:31:31;;;;;;;4.53;1.92;;;14.10;36.60;;;;;;5065879;28;20260;-91
2023/05/18 15:33:59;;;;;;;3.08;1.70;;;14.00;36.60;;;;;;5036864;28;20190;-91
2023/05/18 15:36:26;;;;;;;3.78;1.98;;;14.00;36.40;;;;;;5040266;28;20263;-87
2023/05/18 15:38:54;;;;;;;3.63;2.10;;;13.80;37.60;;;;;;5049337;28;20227;-89
2023/05/18 15:41:21;;;;;;;3.80;1.90;;;13.70;39.70;;;;;;5038022;28;20651;-90
2023/05/18 15:43:49;;;;;;;2.80;1.88;;;13.70;39.50;;;;;;5018793;28;20199;-89
2023/05/18 15:46:16;;;;;;;2.35;1.90;;;13.60;39.00;;;;;;5045320;28;20198;-91
2023/05/18 15:48:48;;;;;;;5.25;2.30;;;13.60;40.00;;;;;;5061036;28;20193;-91
2023/05/18 15:51:15;;;;;;;2.90;2.08;;;13.80;39.50;;;;;;5052089;28;20202;-91
2023/05/18 15:53:43;;;;;;;3.35;1.90;;;13.60;42.30;;;;;;5021162;28;20206;-91
2023/05/18 15:56:10;;;;;;;3.78;2.03;;;13.60;40.90;;;;;;5055755;28;20209;-91
2023/05/18 15:58:44;;;;;;;6.55;2.35;;;13.70;40.30;;;;;;5054669;28;20316;-90
2023/05/18 16:01:11;;;;;;;3.00;1.90;;;13.70;40.70;;;;;;5054916;28;20211;-90
2023/05/18 16:03:38;;;;;;;5.43;2.38;;;13.60;41.30;;;;;;5067142;28;20228;-92
2023/05/18 16:06:07;;;;;;;3.08;2.00;;;13.70;41.20;;;;;;5070930;28;20240;-87
2023/05/18 16:08:34;;;;;;;2.90;1.80;;;13.60;41.20;;;;;;5054626;28;20201;-90
2023/05/18 16:11:01;;;;;;;3.08;2.20;;;13.50;42.30;;;;;;5030387;28;20198;-92
2023/05/18 16:13:29;;;;;;;2.97;1.85;;;13.50;42.10;;;;;;5054333;28;20288;-92
2023/05/18 16:15:56;;;;;;;4.18;2.30;;;13.50;43.50;;;;;;5053202;28;20202;-92
2023/05/18 16:18:23;;;;;;;3.58;2.00;;;13.40;45.40;;;;;;5063356;28;20239;-88
2023/05/18 16:20:50;;;;;;;3.03;1.98;;;13.50;46.60;;;;;;5073701;28;20197;-91
2023/05/18 16:23:19;;;;;;;4.15;2.17;;;13.50;44.90;;;;;;5060793;28;20258;-90
2023/05/18 16:26:20;;;;;;;2.65;1.90;;;13.60;46.60;;;;;;5073746;28;20648;-89
2023/05/18 16:28:48;;;;;;;2.97;2.10;;;13.60;45.10;;;;;;5072562;28;20260;-89
2023/05/18 16:31:15;;;;;;;3.22;2.00;;;13.60;46.40;;;;;;5057755;28;20728;-89
2023/05/18 16:34:27;;;;;;;3.67;2.10;;;13.60;45.00;;;;;;5074902;28;20580;-88
2023/05/18 16:36:54;;;;;;;4.80;2.10;;;13.60;44.60;;;;;;5064684;28;20316;-89
2023/05/18 16:39:24;;;;;;;3.92;2.30;;;13.50;45.40;;;;;;5073369;28;20705;-89
2023/05/18 16:45:16;;;;;;;5.22;2.05;;;13.40;49.90;;;;;;5062324;28;20238;-89
2023/05/18 16:47:43;;;;;;;4.18;2.67;;;13.60;46.60;;;;;;5045153;28;20289;-89
2023/05/18 16:50:10;;;;;;;2.72;2.13;;;13.50;50.00;;;;;;5071350;28;20236;-90